»·PEaware :: ASA817 KLAX-KGEG

ASA817 :: KLAX-KGEG

FLIGHT INFORMATION

Flight Status: Arrived
Operator:
Alaska Airlines
More flights by this operator :: More flights under this callsign
Pilot: Anonymous 12234 (12234)
Aircraft: BOEING 737-200
(B732)
More flights by this aircraft type
Origin: KLAX Los Angeles Intl
United States
Destination: KGEG Spokane Intl
United States
More flights between these airports :: More routes between these airports
Route: GMN7 EHF J5 FMG/N0439F310 J7 REO/N0437F320 J153 GEG
File this flight plan on PilotEdge
Remarks:
Altitude:
(Current/Filed)
32,000ft
Speed:
(Current/Filed)
437kts
Departed: 21-Sep-19 06:32 PM
Arrived: 21-Sep-19 08:49 PM
Distance/Time
Traveled:
822nm/2:17
Distance/Time
To Go:
Arrived

Flight Plot

Page will automatically refresh every two minutes.

Flight plan parsing failed; only flown route is shown


Map Options




Map Legend


Flown Route
Filed Route
Departure Airport
Arrival Airport
Navaid (VOR, NDB)
Fix

Horizontal Profiles

Position Reports

Time Latitude Longitude Heading Altitude Ground
Speed
21-Sep-19 17:49 33.942172 -118.402708 83 113ft 0kts
21-Sep-19 17:50 33.942172 -118.402708 83 113ft 0kts
21-Sep-19 17:51 33.942172 -118.402708 83 113ft 0kts
21-Sep-19 17:52 33.942172 -118.402708 83 113ft 0kts
21-Sep-19 17:53 33.942172 -118.402708 83 113ft 0kts
21-Sep-19 17:54 33.942172 -118.402708 83 113ft 0kts
21-Sep-19 17:55 33.942172 -118.402708 83 113ft 0kts
21-Sep-19 17:56 33.942172 -118.402708 83 113ft 0kts
21-Sep-19 17:57 33.942172 -118.402708 83 113ft 0kts
21-Sep-19 17:58 33.942172 -118.402708 83 113ft 0kts
21-Sep-19 17:59 33.942172 -118.402708 83 113ft 0kts
21-Sep-19 18:00 33.942172 -118.402708 83 113ft 0kts
21-Sep-19 18:01 33.942172 -118.402708 83 113ft 0kts
21-Sep-19 18:02 33.942172 -118.402708 83 113ft 0kts
21-Sep-19 18:03 33.942172 -118.402708 83 113ft 0kts
21-Sep-19 18:04 33.942172 -118.402708 83 113ft 0kts
21-Sep-19 18:05 33.942172 -118.402708 83 113ft 0kts
21-Sep-19 18:06 33.942172 -118.402708 83 113ft 0kts
21-Sep-19 18:07 33.942172 -118.402708 83 113ft 0kts
21-Sep-19 18:08 33.942172 -118.402708 83 113ft 0kts
21-Sep-19 18:09 33.942172 -118.402708 83 113ft 0kts
21-Sep-19 18:10 33.942172 -118.402708 83 113ft 0kts
21-Sep-19 18:11 33.942137 -118.402881 68 114ft 2kts
21-Sep-19 18:12 33.942062 -118.403455 131 114ft 0kts
21-Sep-19 18:13 33.941806 -118.403303 176 114ft 0kts
21-Sep-19 18:14 33.941806 -118.403303 176 113ft 0kts
21-Sep-19 18:15 33.941806 -118.403303 176 113ft 0kts
21-Sep-19 18:16 33.941806 -118.403303 176 113ft 0kts
21-Sep-19 18:17 33.941806 -118.403303 176 113ft 0kts
21-Sep-19 18:18 33.941696 -118.403293 175 113ft 5kts
21-Sep-19 18:20 33.940257 -118.403084 173 113ft 0kts
21-Sep-19 18:21 33.940257 -118.403084 173 113ft 0kts
21-Sep-19 18:22 33.940257 -118.403084 173 113ft 0kts
21-Sep-19 18:23 33.940257 -118.403084 173 113ft 0kts
21-Sep-19 18:24 33.940257 -118.403084 173 113ft 0kts
21-Sep-19 18:25 33.940257 -118.403084 173 113ft 0kts
21-Sep-19 18:26 33.938582 -118.401859 83 114ft 13kts
21-Sep-19 18:27 33.939176 -118.396096 82 113ft 20kts
21-Sep-19 18:28 33.939813 -118.389844 82 113ft 17kts
21-Sep-19 18:29 33.940369 -118.384428 83 113ft 15kts
21-Sep-19 18:30 33.940802 -118.380324 90 113ft 6kts
21-Sep-19 18:31 33.940761 -118.380212 120 113ft 0kts
21-Sep-19 18:32 33.939622 -118.382377 263 114ft 45kts
21-Sep-19 18:33 33.933993 -118.426692 261 1093ft 169kts
21-Sep-19 18:34 33.925753 -118.490972 262 2672ft 224kts
21-Sep-19 18:35 33.915590 -118.573067 262 4792ft 268kts
21-Sep-19 18:36 33.944748 -118.639736 345 7106ft 278kts
21-Sep-19 18:37 34.009071 -118.654156 351 7992ft 284kts
21-Sep-19 18:38 34.088211 -118.669591 351 7997ft 284kts
21-Sep-19 18:39 34.162699 -118.684157 351 7996ft 276kts
21-Sep-19 18:39 34.224941 -118.696341 351 8050ft 284kts
21-Sep-19 18:40 34.302296 -118.723259 343 9991ft 291kts
21-Sep-19 18:42 34.399043 -118.751771 348 11957ft 320kts
21-Sep-19 18:42 34.472531 -118.768175 348 13628ft 325kts
21-Sep-19 18:43 34.562571 -118.791927 346 15349ft 335kts
21-Sep-19 18:45 34.669999 -118.823771 346 17158ft 345kts
21-Sep-19 18:45 34.748771 -118.845970 346 18350ft 351kts
21-Sep-19 18:46 34.842472 -118.881223 342 19657ft 359kts
21-Sep-19 18:47 34.939251 -118.909988 340 20885ft 364kts
21-Sep-19 18:48 35.037571 -118.944594 345 22052ft 370kts
21-Sep-19 18:49 35.137374 -118.974916 345 23054ft 377kts
21-Sep-19 18:50 35.237297 -119.008910 342 24018ft 381kts
21-Sep-19 18:51 35.339690 -119.046201 343 24861ft 387kts
21-Sep-19 18:52 35.444008 -119.082905 343 25639ft 392kts
21-Sep-19 18:53 35.550733 -119.111101 355 26372ft 397kts
21-Sep-19 18:54 35.661875 -119.119284 351 27073ft 401kts
21-Sep-19 18:55 35.773194 -119.135106 352 27739ft 404kts
21-Sep-19 18:56 35.882290 -119.149161 352 28360ft 407kts
21-Sep-19 18:57 35.994339 -119.163475 352 29047ft 407kts
21-Sep-19 18:58 36.100636 -119.177281 352 29671ft 407kts
21-Sep-19 18:59 36.212607 -119.191802 352 30287ft 407kts
21-Sep-19 19:00 36.324974 -119.206530 352 30866ft 405kts
21-Sep-19 19:01 36.436738 -119.221328 352 31466ft 402kts
21-Sep-19 19:02 36.548103 -119.236126 352 31907ft 402kts
21-Sep-19 19:03 36.660401 -119.251187 352 31940ft 412kts
21-Sep-19 19:04 36.775758 -119.266723 352 31938ft 422kts
21-Sep-19 19:05 36.893463 -119.282395 352 31938ft 430kts
21-Sep-19 19:06 37.012891 -119.298214 352 31936ft 435kts
21-Sep-19 19:07 37.127682 -119.313485 352 31937ft 436kts
21-Sep-19 19:08 37.247566 -119.329399 352 32079ft 432kts
21-Sep-19 19:09 37.366479 -119.345303 352 32093ft 430kts
21-Sep-19 19:10 37.485371 -119.361424 352 32091ft 429kts
21-Sep-19 19:11 37.604044 -119.377167 351 32091ft 429kts
21-Sep-19 19:12 37.720905 -119.405578 346 32090ft 428kts
21-Sep-19 19:13 37.837916 -119.437129 347 32117ft 430kts
21-Sep-19 19:14 37.955879 -119.462801 351 32280ft 429kts
21-Sep-19 19:15 38.075462 -119.477347 355 32256ft 434kts
21-Sep-19 19:16 38.190428 -119.481870 357 32192ft 438kts
21-Sep-19 19:17 38.312299 -119.484331 357 32158ft 439kts
21-Sep-19 19:18 38.434356 -119.493752 353 32162ft 438kts
21-Sep-19 19:19 38.554717 -119.514131 349 32164ft 435kts
21-Sep-19 19:20 38.673772 -119.540548 348 32161ft 434kts
21-Sep-19 19:21 38.793028 -119.562921 351 32155ft 433kts
21-Sep-19 19:22 38.912910 -119.576681 354 32155ft 433kts
21-Sep-19 19:23 39.033079 -119.586978 353 32155ft 431kts
21-Sep-19 19:24 39.146514 -119.600852 351 32155ft 430kts
21-Sep-19 19:25 39.265326 -119.618951 351 32155ft 429kts
21-Sep-19 19:26 39.383275 -119.635350 352 32155ft 428kts
21-Sep-19 19:27 39.502259 -119.649966 358 32150ft 429kts
21-Sep-19 19:28 39.618799 -119.616488 18 32177ft 434kts
21-Sep-19 19:29 39.725799 -119.545573 26 32157ft 439kts
21-Sep-19 19:30 39.838392 -119.485940 19 32176ft 438kts
21-Sep-19 19:31 39.951201 -119.424799 21 32177ft 441kts
21-Sep-19 19:32 40.063846 -119.360947 21 32174ft 443kts
21-Sep-19 19:33 40.173047 -119.299004 21 32139ft 445kts
21-Sep-19 19:34 40.287027 -119.234970 20 32137ft 446kts
21-Sep-19 19:35 40.400616 -119.171124 20 32137ft 447kts
21-Sep-19 19:36 40.514792 -119.106618 20 32137ft 446kts
21-Sep-19 19:37 40.628128 -119.042139 21 32136ft 443kts
21-Sep-19 19:38 40.740820 -118.977599 21 32136ft 440kts
21-Sep-19 19:39 40.852614 -118.913104 20 32136ft 437kts
21-Sep-19 19:40 40.963686 -118.848954 20 32136ft 435kts
21-Sep-19 19:41 41.074341 -118.785173 20 32157ft 433kts
21-Sep-19 19:42 41.177148 -118.722098 24 32166ft 434kts
21-Sep-19 19:43 41.284751 -118.651058 24 32164ft 433kts
21-Sep-19 19:44 41.391882 -118.576199 24 32164ft 433kts
21-Sep-19 19:45 41.499123 -118.504457 22 32165ft 434kts
21-Sep-19 19:46 41.610192 -118.439797 18 32165ft 435kts
21-Sep-19 19:47 41.723756 -118.381830 17 32158ft 437kts
21-Sep-19 19:48 41.832905 -118.325718 19 32155ft 440kts
21-Sep-19 19:49 41.945093 -118.259808 22 32156ft 442kts
21-Sep-19 19:50 42.056360 -118.188246 22 32167ft 443kts
21-Sep-19 19:51 42.167001 -118.119829 20 32165ft 443kts
21-Sep-19 19:52 42.280389 -118.054293 20 32164ft 444kts
21-Sep-19 19:53 42.393802 -117.987321 21 32162ft 446kts
21-Sep-19 19:54 42.507020 -117.918697 21 32158ft 447kts
21-Sep-19 19:55 42.623851 -117.867809 4 32157ft 440kts
21-Sep-19 19:56 42.745710 -117.866163 357 32155ft 438kts
21-Sep-19 19:57 42.867720 -117.862561 359 32154ft 438kts
21-Sep-19 19:58 42.988790 -117.858013 359 32154ft 435kts
21-Sep-19 19:59 43.108611 -117.854427 358 32155ft 433kts
21-Sep-19 20:00 43.228728 -117.851666 358 32154ft 432kts
21-Sep-19 20:01 43.348482 -117.849347 358 32155ft 431kts
21-Sep-19 20:02 43.468847 -117.846835 358 32155ft 431kts
21-Sep-19 20:03 43.588457 -117.844113 358 32141ft 432kts
21-Sep-19 20:04 43.708669 -117.841204 358 32115ft 433kts
21-Sep-19 20:05 43.829563 -117.838609 358 32119ft 435kts
21-Sep-19 20:06 43.950670 -117.834770 359 32119ft 437kts
21-Sep-19 20:07 44.072203 -117.826098 0 32119ft 439kts
21-Sep-19 20:08 44.193329 -117.819441 358 32119ft 440kts
21-Sep-19 20:09 44.315422 -117.818161 357 32119ft 441kts
21-Sep-19 20:10 44.438629 -117.818330 357 32119ft 442kts
21-Sep-19 20:11 44.561468 -117.815546 358 32119ft 444kts
21-Sep-19 20:12 44.684742 -117.811812 358 32119ft 444kts
21-Sep-19 20:13 44.808389 -117.808966 358 32118ft 444kts
21-Sep-19 20:14 44.931438 -117.803996 0 32129ft 444kts
21-Sep-19 20:15 45.053921 -117.792914 1 31961ft 430kts
21-Sep-19 20:16 45.169393 -117.786179 359 30739ft 422kts
21-Sep-19 20:17 45.285438 -117.776702 1 29438ft 414kts
21-Sep-19 20:18 45.398842 -117.765549 1 28216ft 407kts
21-Sep-19 20:19 45.512160 -117.755748 0 27081ft 409kts
21-Sep-19 20:20 45.624494 -117.747412 0 26302ft 402kts
21-Sep-19 20:21 45.735753 -117.739935 0 25406ft 398kts
21-Sep-19 20:22 45.845985 -117.732566 0 24624ft 394kts
21-Sep-19 20:23 45.953388 -117.724791 1 23890ft 390kts
21-Sep-19 20:24 46.060935 -117.716171 1 23202ft 387kts
21-Sep-19 20:25 46.167348 -117.707310 1 22595ft 384kts
21-Sep-19 20:26 46.273343 -117.698581 1 22172ft 377kts
21-Sep-19 20:27 46.377761 -117.690173 1 21804ft 374kts
21-Sep-19 20:28 46.481325 -117.683615 356 21413ft 371kts
21-Sep-19 20:29 46.583046 -117.697041 352 20798ft 363kts
21-Sep-19 20:30 46.683158 -117.705435 357 18827ft 358kts
21-Sep-19 20:31 46.781306 -117.698945 3 17049ft 350kts
21-Sep-19 20:32 46.876148 -117.681456 5 15290ft 342kts
21-Sep-19 20:33 46.969271 -117.665283 2 13583ft 333kts
21-Sep-19 20:34 47.059875 -117.658480 358 12995ft 328kts
21-Sep-19 20:35 47.149468 -117.641051 21 12925ft 334kts
21-Sep-19 20:36 47.232493 -117.580971 23 12455ft 332kts
21-Sep-19 20:37 47.314022 -117.520862 23 11685ft 325kts
21-Sep-19 20:39 47.394164 -117.463112 23 9550ft 309kts
21-Sep-19 20:40 47.469125 -117.411158 23 7661ft 290kts
21-Sep-19 20:41 47.541813 -117.361965 23 5609ft 281kts
21-Sep-19 20:42 47.608200 -117.315817 20 4620ft 238kts
21-Sep-19 20:43 47.666525 -117.300694 0 4353ft 193kts
21-Sep-19 20:44 47.713599 -117.332943 323 4194ft 192kts
21-Sep-19 20:45 47.720093 -117.391868 214 4237ft 179kts
21-Sep-19 20:46 47.684109 -117.436582 227 3953ft 157kts
21-Sep-19 20:47 47.655474 -117.481521 224 3108ft 145kts
21-Sep-19 20:48 47.627424 -117.523965 224 2393ft 132kts
21-Sep-19 20:49 47.613680 -117.544776 235 2392ft 12kts
21-Sep-19 20:50 47.615224 -117.546360 46 2392ft 10kts
21-Sep-19 20:51 47.618834 -117.540954 45 2392ft 23kts
21-Sep-19 20:52 47.622189 -117.537445 317 2392ft 8kts
21-Sep-19 20:53 47.623124 -117.539257 359 2392ft 4kts
21-Sep-19 20:54 47.623368 -117.539259 0 2392ft 0kts
21-Sep-19 20:55 47.623368 -117.539259 0 2392ft 0kts
21-Sep-19 20:56 47.623368 -117.539259 0 2392ft 0kts
21-Sep-19 20:57 47.623368 -117.539259 0 2392ft 0kts
21-Sep-19 20:58 47.623368 -117.539259 0 2392ft 0kts
21-Sep-19 20:59 47.623368 -117.539259 0 2392ft 0kts
21-Sep-19 21:00 47.623368 -117.539259 0 2392ft 0kts
21-Sep-19 21:01 47.623368 -117.539259 0 2392ft 0kts
21-Sep-19 21:01 47.623368 -117.539259 0 2392ft 0kts
21-Sep-19 21:03 47.623368 -117.539259 0 2392ft 0kts

Navigation Log

Ident Type
Flight plan parsing failed, navigation log unavailable